Delbarton, West Virginia
Current Conditions -  °F | °C
As of 11:35 PM on Tuesday 21 Oct 2014 (Local Time) from KPBX Reporting Station
Overcast Overcast  
Wind Chill: 41°   Ceiling: 1700
Heat Index: 45°   Visibility: 10mi
Dew Point: 42°   Wind: 7mph
Humidity: 88%   Direction: 360°N
Pressure: 30.11"   Gusts: 21mph
Location:  37.71°N, 82.18°W
Report Text: KPBX 220335Z AUTO 36006G18KT 10SM SCT012 OVC017 07/06 A3011 RMK AO2 T00730055
Loading
Personal Weather Stations






























Interactive Weather Map
Tropical Storm Tracking
New forecast layout! Learn more

10-Day Weather Forecast

Advertisements
Track Severe Weather on mobile